createdAt,value
2023-05-11T00:03:49.735Z,11.60
2023-05-11T00:08:52.948Z,11.60
2023-05-11T00:13:54.996Z,11.50
2023-05-11T00:19:25.138Z,11.50
2023-05-11T00:24:32.326Z,11.50
2023-05-11T00:29:43.982Z,11.50
2023-05-11T00:34:55.143Z,11.50
2023-05-11T00:39:57.237Z,11.40
2023-05-11T00:45:22.226Z,11.40
2023-05-11T00:50:48.764Z,11.40
2023-05-11T00:56:11.199Z,11.30
2023-05-11T01:01:17.042Z,11.20
2023-05-11T01:06:42.544Z,11.20
2023-05-11T01:12:33.168Z,11.20
2023-05-11T01:18:24.605Z,11.20
2023-05-11T01:23:45.011Z,11.20
2023-05-11T01:29:25.224Z,11.20
2023-05-11T01:34:36.437Z,11.20
2023-05-11T01:40:01.614Z,11.10
2023-05-11T01:45:27.043Z,11.10
2023-05-11T01:50:31.950Z,11.00
2023-05-11T01:56:16.980Z,11.00
2023-05-11T02:01:35.510Z,11.10
2023-05-11T02:07:09.686Z,11.10
2023-05-11T02:12:21.815Z,11.00
2023-05-11T02:17:28.251Z,10.80
2023-05-11T02:22:39.933Z,10.80
2023-05-11T02:27:47.718Z,10.80
2023-05-11T02:32:54.129Z,10.90
2023-05-11T02:38:00.708Z,10.90
2023-05-11T02:43:10.465Z,10.80
2023-05-11T02:48:45.185Z,10.80
2023-05-11T02:54:05.277Z,10.70
2023-05-11T02:59:30.736Z,10.70
2023-05-11T03:04:34.709Z,10.60
2023-05-11T03:09:39.128Z,10.70
2023-05-11T03:14:55.978Z,10.70
2023-05-11T03:20:12.501Z,10.70
2023-05-11T03:25:19.406Z,10.70
2023-05-11T03:30:23.009Z,10.70
2023-05-11T03:35:31.174Z,10.70
2023-05-11T03:40:54.160Z,10.60
2023-05-11T03:46:20.889Z,10.60
2023-05-11T03:51:55.168Z,10.60
2023-05-11T03:57:17.474Z,10.60
2023-05-11T04:02:47.623Z,10.50
2023-05-11T04:08:13.349Z,10.50
2023-05-11T04:13:15.760Z,10.50
2023-05-11T04:18:17.866Z,10.50
2023-05-11T04:23:19.994Z,10.40
2023-05-11T04:28:23.911Z,10.50
2023-05-11T04:33:27.474Z,10.40
2023-05-11T04:38:31.014Z,10.40
2023-05-11T04:43:33.176Z,10.40
2023-05-11T04:48:36.467Z,10.40
2023-05-11T04:53:40.126Z,10.40
2023-05-11T04:58:43.767Z,10.40
2023-05-11T05:03:49.772Z,10.40
2023-05-11T05:08:52.861Z,10.50
2023-05-11T05:13:56.012Z,10.40
2023-05-11T05:18:58.183Z,10.20
2023-05-11T05:24:00.359Z,10.20
2023-05-11T05:29:02.530Z,10.10
2023-05-11T05:34:06.586Z,10.20
2023-05-11T05:39:12.357Z,10.40
2023-05-11T05:44:15.601Z,10.60
2023-05-11T05:49:18.329Z,10.70
2023-05-11T05:54:20.530Z,10.70
2023-05-11T05:59:24.413Z,10.90
2023-05-11T06:04:31.025Z,11.00
2023-05-11T06:09:33.212Z,11.10
2023-05-11T06:14:35.470Z,11.10
2023-05-11T06:19:38.776Z,10.90
2023-05-11T06:25:02.061Z,10.80
2023-05-11T06:30:10.119Z,10.80
2023-05-11T06:35:13.308Z,10.80
2023-05-11T06:40:18.490Z,10.90
2023-05-11T06:45:21.687Z,11.10
2023-05-11T06:50:50.385Z,11.30
2023-05-11T06:55:58.354Z,11.40
2023-05-11T07:01:22.867Z,12.40
2023-05-11T07:06:28.295Z,13.30
2023-05-11T07:11:34.259Z,12.50
2023-05-11T07:16:42.036Z,12.30
2023-05-11T07:22:05.957Z,12.20
2023-05-11T07:27:10.342Z,12.30
2023-05-11T07:32:15.409Z,12.10
2023-05-11T07:37:17.541Z,12.10
2023-05-11T07:42:19.890Z,12.20
2023-05-11T07:47:25.281Z,12.40
2023-05-11T07:52:27.548Z,12.50
2023-05-11T07:57:31.089Z,13.00
2023-05-11T08:02:33.352Z,13.70
2023-05-11T08:07:35.859Z,13.90
2023-05-11T08:13:06.972Z,14.00
2023-05-11T08:18:11.804Z,14.20
2023-05-11T08:23:18.052Z,14.10
2023-05-11T08:28:21.431Z,14.40
2023-05-11T08:33:36.625Z,14.80
2023-05-11T08:38:40.046Z,15.20
2023-05-11T08:43:45.885Z,15.10
2023-05-11T08:48:48.653Z,14.10
2023-05-11T08:53:52.993Z,14.80
2023-05-11T08:58:58.442Z,14.60
2023-05-11T09:04:00.618Z,14.40
2023-05-11T09:09:03.440Z,15.30
2023-05-11T09:14:05.959Z,15.20
2023-05-11T09:19:16.592Z,14.40
2023-05-11T09:24:24.198Z,14.10
2023-05-11T09:29:30.599Z,14.40
2023-05-11T09:34:33.008Z,14.80
2023-05-11T09:39:42.084Z,14.50
2023-05-11T09:45:00.116Z,14.20
2023-05-11T09:50:26.198Z,14.20
2023-05-11T09:55:55.928Z,14.10
2023-05-11T10:00:58.232Z,14.70
2023-05-11T10:06:01.615Z,15.20
2023-05-11T10:11:25.508Z,14.90
2023-05-11T10:16:31.888Z,14.40
2023-05-11T10:21:39.609Z,14.80
2023-05-11T10:26:42.735Z,15.00
2023-05-11T10:31:46.353Z,14.70
2023-05-11T10:36:48.899Z,14.80
2023-05-11T10:42:28.715Z,15.20
2023-05-11T10:47:31.409Z,15.40
2023-05-11T10:52:59.976Z,15.80
2023-05-11T10:58:42.246Z,15.20
2023-05-11T11:04:05.309Z,15.10
2023-05-11T11:09:16.833Z,16.10
2023-05-11T11:14:19.535Z,16.30
2023-05-11T11:19:44.346Z,16.40
2023-05-11T11:24:47.260Z,16.90
2023-05-11T11:30:22.915Z,16.00
2023-05-11T11:35:43.448Z,15.80
2023-05-11T11:40:56.231Z,17.20
2023-05-11T11:46:03.407Z,16.40
2023-05-11T11:56:26.419Z,16.50
2023-05-11T12:01:34.742Z,16.60
2023-05-11T12:06:47.675Z,16.20
2023-05-11T12:12:02.448Z,16.10
2023-05-11T12:17:27.415Z,16.30
2023-05-11T12:22:29.626Z,16.50
2023-05-11T12:27:34.708Z,17.00
2023-05-11T12:32:44.859Z,17.70
2023-05-11T12:37:50.432Z,18.10
2023-05-11T12:42:58.970Z,17.00
2023-05-11T12:48:16.860Z,15.90
2023-05-11T12:53:20.653Z,15.80
2023-05-11T12:58:44.097Z,15.60
2023-05-11T13:03:48.617Z,15.50
2023-05-11T13:08:53.077Z,16.20
2023-05-11T13:13:58.143Z,17.00
2023-05-11T13:19:17.712Z,17.00
2023-05-11T13:24:24.472Z,16.90
2023-05-11T13:29:38.353Z,17.20
2023-05-11T13:34:41.746Z,17.60
2023-05-11T13:39:51.550Z,17.90
2023-05-11T13:44:53.796Z,17.50
2023-05-11T13:49:56.187Z,17.30
2023-05-11T13:54:58.422Z,17.30
2023-05-11T14:06:08.748Z,15.70
2023-05-11T14:11:11.070Z,15.20
2023-05-11T14:16:23.080Z,16.30
2023-05-11T14:21:28.042Z,16.80
2023-05-11T14:26:33.115Z,17.20
2023-05-11T14:31:42.798Z,17.10
2023-05-11T14:36:47.737Z,16.50
2023-05-11T14:41:53.627Z,16.70
2023-05-11T14:46:58.949Z,16.70
2023-05-11T14:52:02.058Z,16.40
2023-05-11T14:57:06.628Z,16.40
2023-05-11T15:02:44.417Z,15.60
2023-05-11T15:08:30.461Z,15.60
2023-05-11T15:13:48.498Z,15.40
2023-05-11T15:20:00.319Z,15.40
2023-05-11T15:25:08.915Z,15.50
2023-05-11T15:30:15.407Z,15.70
2023-05-11T15:35:37.786Z,15.80
2023-05-11T15:45:57.601Z,16.10
2023-05-11T15:51:04.101Z,17.50
2023-05-11T15:56:26.486Z,17.10
2023-05-11T16:01:43.705Z,18.40
2023-05-11T16:07:31.309Z,18.60
2023-05-11T16:12:35.078Z,18.70
2023-05-11T16:17:37.436Z,19.10
2023-05-11T16:22:46.122Z,18.80
2023-05-11T16:27:48.310Z,17.10
2023-05-11T16:32:52.569Z,16.40
2023-05-11T16:37:56.673Z,15.70
2023-05-11T16:42:58.826Z,15.50
2023-05-11T16:48:09.186Z,15.20
2023-05-11T16:53:14.584Z,16.00
2023-05-11T16:58:18.071Z,15.60
2023-05-11T17:03:23.574Z,15.20
2023-05-11T17:08:33.670Z,15.00
2023-05-11T17:13:37.615Z,14.80
2023-05-11T17:19:18.244Z,14.70
2023-05-11T17:24:31.108Z,15.10
2023-05-11T17:29:49.262Z,16.20
2023-05-11T17:34:53.569Z,15.60
2023-05-11T17:40:07.652Z,14.80
2023-05-11T17:45:26.017Z,14.30
2023-05-11T17:50:57.855Z,14.10
2023-05-11T18:02:45.215Z,14.10
2023-05-11T18:08:17.572Z,14.10
2023-05-11T18:13:23.297Z,14.00
2023-05-11T18:18:29.563Z,13.90
2023-05-11T18:24:19.964Z,13.90
2023-05-11T18:29:45.129Z,13.80
2023-05-11T18:34:48.741Z,13.60
2023-05-11T18:45:21.257Z,13.60
2023-05-11T18:50:37.891Z,13.50
2023-05-11T18:56:49.319Z,13.50
2023-05-11T19:01:55.796Z,13.30
2023-05-11T19:08:01.166Z,13.20
2023-05-11T19:13:07.305Z,13.00
2023-05-11T19:18:18.545Z,12.80
2023-05-11T19:23:21.136Z,12.70
2023-05-11T19:28:25.005Z,12.60
2023-05-11T19:33:36.121Z,12.50
2023-05-11T19:38:42.587Z,12.60
2023-05-11T19:43:48.885Z,12.60
2023-05-11T19:49:17.612Z,12.70
2023-05-11T19:54:22.292Z,12.70
2023-05-11T19:59:39.391Z,12.70
2023-05-11T20:04:49.546Z,12.70
2023-05-11T20:09:52.614Z,12.60
2023-05-11T20:20:20.370Z,12.60
2023-05-11T20:25:32.259Z,12.60
2023-05-11T20:31:11.599Z,12.50
2023-05-11T20:36:30.705Z,12.40
2023-05-11T20:41:36.083Z,12.30
2023-05-11T20:46:47.784Z,12.10
2023-05-11T20:51:59.887Z,12.00
2023-05-11T20:57:06.211Z,11.90
2023-05-11T21:02:09.671Z,11.80
2023-05-11T21:07:23.079Z,11.70
2023-05-11T21:12:28.338Z,11.60
2023-05-11T21:17:38.444Z,11.50
2023-05-11T21:22:47.720Z,11.50
2023-05-11T21:28:07.276Z,11.50
2023-05-11T21:33:33.269Z,11.60
2023-05-11T21:39:04.850Z,11.40
2023-05-11T21:44:16.744Z,11.50
2023-05-11T21:55:05.248Z,11.50
2023-05-11T22:00:38.059Z,11.40
2023-05-11T22:12:43.460Z,11.40
2023-05-11T22:18:29.203Z,11.20
2023-05-11T22:24:29.398Z,11.20
2023-05-11T22:30:34.508Z,11.20
2023-05-11T22:55:15.904Z,10.90
2023-05-11T23:00:36.939Z,10.80
2023-05-11T23:07:01.140Z,10.80
2023-05-11T23:37:56.242Z,11.00
2023-05-11T23:43:27.586Z,11.20
2023-05-11T23:49:12.399Z,11.20
2023-05-11T23:59:48.910Z,11.30
